Time;durP1;ratioP1;P1;durP2;ratioP2;P2;SDS_P1;SDS_P2;PMS_P1;PMS_P2;Temp;Humidity;BMP_temperature;BMP_pressure;BME280_temperature;BME280_humidity;BME280_pressure;Samples;Min_cycle;Max_cycle;Signal;HPM_P1;HPM_P2
2023/07/23 00:01:29;;;;;;;;;2.25;2.00;;;;;;;;5120587;27;46300;-44
2023/07/23 00:03:54;;;;;;;;;2.75;2.75;;;;;;;;5120763;27;45403;-41
2023/07/23 00:06:19;;;;;;;;;3.00;3.00;;;;;;;;5121072;27;45340;-43
2023/07/23 00:08:44;;;;;;;;;3.00;2.00;;;;;;;;5121011;27;45304;-43
2023/07/23 00:11:10;;;;;;;;;3.00;3.00;;;;;;;;5120531;27;45368;-44
2023/07/23 00:13:35;;;;;;;;;4.00;3.50;;;;;;;;5120654;27;45310;-43
2023/07/23 00:16:00;;;;;;;;;2.50;2.50;;;;;;;;5120155;27;45350;-43
2023/07/23 00:18:25;;;;;;;;;3.25;2.00;;;;;;;;5120960;27;45303;-46
2023/07/23 00:20:50;;;;;;;;;2.00;2.00;;;;;;;;5120398;27;46287;-41
2023/07/23 00:23:15;;;;;;;;;2.50;2.50;;;;;;;;5120529;27;45317;-42
2023/07/23 00:25:42;;;;;;;;;3.50;2.00;;;;;;;;5120607;27;45380;-42
2023/07/23 00:28:07;;;;;;;;;3.75;1.50;;;;;;;;5120820;27;45180;-42
2023/07/23 00:30:32;;;;;;;;;3.25;3.00;;;;;;;;5101715;27;46139;-43
2023/07/23 00:32:57;;;;;;;;;4.00;2.00;;;;;;;;5120134;27;45292;-43
2023/07/23 00:35:23;;;;;;;;;4.50;2.00;;;;;;;;5120114;27;45346;-42
2023/07/23 00:37:49;;;;;;;;;3.00;3.00;;;;;;;;5119453;27;45353;-43
2023/07/23 00:40:14;;;;;;;;;2.50;2.50;;;;;;;;5120341;27;45427;-43
2023/07/23 00:42:40;;;;;;;;;2.50;2.50;;;;;;;;5120178;27;45435;-44
2023/07/23 00:45:05;;;;;;;;;4.25;3.00;;;;;;;;5120276;27;45329;-43
2023/07/23 00:47:31;;;;;;;;;2.00;2.00;;;;;;;;5120274;27;45219;-43
2023/07/23 00:49:56;;;;;;;;;2.00;2.00;;;;;;;;5120071;27;47227;-43
2023/07/23 00:52:21;;;;;;;;;3.75;3.75;;;;;;;;5120216;27;45290;-43
2023/07/23 00:54:47;;;;;;;;;4.00;2.00;;;;;;;;5120400;27;45426;-43
2023/07/23 00:57:13;;;;;;;;;1.50;1.25;;;;;;;;5120479;27;45269;-42
2023/07/23 00:59:38;;;;;;;;;2.25;2.25;;;;;;;;5120007;27;46330;-43
2023/07/23 01:02:04;;;;;;;;;3.50;1.75;;;;;;;;5119670;27;45487;-44
2023/07/23 01:04:29;;;;;;;;;3.75;2.00;;;;;;;;5101950;27;45341;-45
2023/07/23 01:06:56;;;;;;;;;3.00;3.00;;;;;;;;5120418;27;45299;-41
2023/07/23 01:09:22;;;;;;;;;4.00;2.25;;;;;;;;5119808;27;47936;-44
2023/07/23 01:11:48;;;;;;;;;3.00;1.50;;;;;;;;5119877;27;45769;-43
2023/07/23 01:14:14;;;;;;;;;3.50;2.25;;;;;;;;5119308;27;45357;-44
2023/07/23 01:16:39;;;;;;;;;2.00;2.00;;;;;;;;5120419;27;45127;-43
2023/07/23 01:19:06;;;;;;;;;4.25;2.75;;;;;;;;5119949;27;46325;-43
2023/07/23 01:21:31;;;;;;;;;1.40;1.00;;;;;;;;5119721;27;45375;-42
2023/07/23 01:23:57;;;;;;;;;2.25;1.00;;;;;;;;5119885;27;45269;-42
2023/07/23 01:26:22;;;;;;;;;5.00;4.00;;;;;;;;5119915;27;45401;-42
2023/07/23 01:28:47;;;;;;;;;2.00;2.00;;;;;;;;5119656;27;45966;-44
2023/07/23 01:31:12;;;;;;;;;3.75;3.00;;;;;;;;5119535;27;45418;-41
2023/07/23 01:33:40;;;;;;;;;2.00;2.00;;;;;;;;5119606;27;45395;-43
2023/07/23 01:36:06;;;;;;;;;3.00;2.50;;;;;;;;5119786;27;45440;-42
2023/07/23 01:38:32;;;;;;;;;3.00;2.25;;;;;;;;5119519;27;45970;-43
2023/07/23 01:41:01;;;;;;;;;2.75;2.75;;;;;;;;5119369;27;45478;-43
2023/07/23 01:43:27;;;;;;;;;3.50;3.00;;;;;;;;5119610;27;45403;-43
2023/07/23 01:45:52;;;;;;;;;2.50;2.50;;;;;;;;5119441;27;45268;-42
2023/07/23 01:48:19;;;;;;;;;3.50;2.00;;;;;;;;5119018;27;46071;-42
2023/07/23 01:50:44;;;;;;;;;2.80;1.00;;;;;;;;5119213;27;45469;-42
2023/07/23 01:53:10;;;;;;;;;2.25;2.25;;;;;;;;5119498;27;45487;-42
2023/07/23 01:55:35;;;;;;;;;2.25;2.25;;;;;;;;5119552;27;45432;-43
2023/07/23 01:58:00;;;;;;;;;2.00;2.00;;;;;;;;5119179;27;46363;-42
2023/07/23 02:00:26;;;;;;;;;2.25;2.25;;;;;;;;5119182;27;45316;-42
2023/07/23 02:02:52;;;;;;;;;2.75;2.75;;;;;;;;5119118;27;45275;-42
2023/07/23 02:05:17;;;;;;;;;2.00;2.00;;;;;;;;5119408;27;45380;-48
2023/07/23 02:07:43;;;;;;;;;2.25;2.00;;;;;;;;5118809;27;46336;-42
2023/07/23 02:10:08;;;;;;;;;3.00;3.00;;;;;;;;5118939;27;45395;-42
2023/07/23 02:12:33;;;;;;;;;2.50;2.50;;;;;;;;5118783;27;45753;-43
2023/07/23 02:14:59;;;;;;;;;3.00;2.00;;;;;;;;5119174;27;45164;-42
2023/07/23 02:17:24;;;;;;;;;2.00;2.00;;;;;;;;5118568;27;45305;-43
2023/07/23 02:19:49;;;;;;;;;4.00;2.50;;;;;;;;5118957;27;45379;-42
2023/07/23 02:22:14;;;;;;;;;1.75;1.75;;;;;;;;5118950;27;45514;-43
2023/07/23 02:24:39;;;;;;;;;3.00;3.00;;;;;;;;5119175;27;45211;-42
2023/07/23 02:27:05;;;;;;;;;4.75;2.50;;;;;;;;5118619;27;45359;-44
2023/07/23 02:29:30;;;;;;;;;3.00;2.00;;;;;;;;5118190;27;45350;-43
2023/07/23 02:31:55;;;;;;;;;5.00;4.00;;;;;;;;5118570;27;45373;-43
2023/07/23 02:34:20;;;;;;;;;2.00;2.00;;;;;;;;5118847;27;45247;-43
2023/07/23 02:36:46;;;;;;;;;3.00;3.00;;;;;;;;5118143;27;45352;-43
2023/07/23 02:39:11;;;;;;;;;6.00;5.00;;;;;;;;5118548;27;45313;-43
2023/07/23 02:41:36;;;;;;;;;3.00;2.50;;;;;;;;5099988;27;45667;-42
2023/07/23 02:44:02;;;;;;;;;4.00;2.00;;;;;;;;5118765;27;45293;-43
2023/07/23 02:46:27;;;;;;;;;5.00;3.50;;;;;;;;5118295;27;45974;-43
2023/07/23 02:48:52;;;;;;;;;4.25;3.50;;;;;;;;5118380;27;45244;-43
2023/07/23 02:51:18;;;;;;;;;1.00;1.00;;;;;;;;5118575;27;45432;-43
2023/07/23 02:53:43;;;;;;;;;2.75;2.25;;;;;;;;5118680;27;45278;-43
2023/07/23 02:56:08;;;;;;;;;3.25;2.00;;;;;;;;5118407;27;45603;-43
2023/07/23 02:58:33;;;;;;;;;2.25;2.25;;;;;;;;5118045;27;45486;-44
2023/07/23 03:00:59;;;;;;;;;4.00;3.25;;;;;;;;5117837;27;45472;-47
2023/07/23 03:03:24;;;;;;;;;3.00;3.00;;;;;;;;5118400;27;45438;-44
2023/07/23 03:05:49;;;;;;;;;3.50;3.50;;;;;;;;5118334;27;46274;-44
2023/07/23 03:08:15;;;;;;;;;6.00;2.00;;;;;;;;5118279;27;45358;-44
2023/07/23 03:10:40;;;;;;;;;4.00;4.00;;;;;;;;5118334;27;45349;-43
2023/07/23 03:13:06;;;;;;;;;3.50;2.75;;;;;;;;5118572;27;45361;-42
2023/07/23 03:15:31;;;;;;;;;2.75;2.00;;;;;;;;5117740;27;47032;-42
2023/07/23 03:17:56;;;;;;;;;3.00;2.00;;;;;;;;5117889;27;45415;-43
2023/07/23 03:20:22;;;;;;;;;3.00;3.00;;;;;;;;5117664;27;45393;-44
2023/07/23 03:22:47;;;;;;;;;3.50;2.50;;;;;;;;5118248;27;45299;-43
2023/07/23 03:25:12;;;;;;;;;2.50;2.50;;;;;;;;5118057;27;45966;-42
2023/07/23 03:27:38;;;;;;;;;3.75;3.75;;;;;;;;5117827;27;45531;-43
2023/07/23 03:30:03;;;;;;;;;2.00;2.00;;;;;;;;5118003;27;45355;-45
2023/07/23 03:32:28;;;;;;;;;4.50;4.00;;;;;;;;5117674;27;45318;-43
2023/07/23 03:34:54;;;;;;;;;3.75;3.75;;;;;;;;5117214;27;45380;-42
2023/07/23 03:37:19;;;;;;;;;3.00;3.00;;;;;;;;5117691;27;45402;-42
2023/07/23 03:39:44;;;;;;;;;4.25;4.25;;;;;;;;5117987;27;45473;-43
2023/07/23 03:42:09;;;;;;;;;4.00;2.75;;;;;;;;5118014;27;45278;-41
2023/07/23 03:44:34;;;;;;;;;5.00;4.00;;;;;;;;5117616;27;46252;-41
2023/07/23 03:47:00;;;;;;;;;4.00;4.00;;;;;;;;5117742;27;45237;-42
2023/07/23 03:49:25;;;;;;;;;3.75;3.50;;;;;;;;5117237;27;45290;-43
2023/07/23 03:51:50;;;;;;;;;4.75;3.25;;;;;;;;5117887;27;45324;-42
2023/07/23 03:54:15;;;;;;;;;3.00;3.00;;;;;;;;5117731;27;46232;-42
2023/07/23 03:56:40;;;;;;;;;4.50;4.50;;;;;;;;5117547;27;45255;-42
2023/07/23 03:59:05;;;;;;;;;5.00;5.00;;;;;;;;5117752;27;45240;-42
2023/07/23 04:01:31;;;;;;;;;4.00;2.00;;;;;;;;5117645;27;45614;-41
2023/07/23 04:03:56;;;;;;;;;5.00;4.75;;;;;;;;5117222;27;46192;-42
2023/07/23 04:06:21;;;;;;;;;4.75;4.75;;;;;;;;5117410;27;45405;-43
2023/07/23 04:08:46;;;;;;;;;4.25;4.00;;;;;;;;5117576;27;45261;-48
2023/07/23 04:11:12;;;;;;;;;3.00;3.00;;;;;;;;5117976;27;45219;-41
2023/07/23 04:13:37;;;;;;;;;2.75;2.75;;;;;;;;5120113;27;45443;-41
2023/07/23 04:16:07;;;;;;;;;5.00;3.50;;;;;;;;5120766;27;45432;-41
2023/07/23 04:18:44;;;;;;;;;3.75;3.50;;;;;;;;5121000;27;45339;-40
2023/07/23 04:21:09;;;;;;;;;3.25;2.25;;;;;;;;5121001;27;45548;-41
2023/07/23 04:23:34;;;;;;;;;4.00;4.00;;;;;;;;5120416;27;45273;-42
2023/07/23 04:26:00;;;;;;;;;4.00;4.00;;;;;;;;5120766;27;45413;-41
2023/07/23 04:28:25;;;;;;;;;4.50;4.00;;;;;;;;5120878;27;45436;-40
2023/07/23 04:30:50;;;;;;;;;13.25;12.00;;;;;;;;5120869;27;45279;-41
2023/07/23 04:33:15;;;;;;;;;3.25;3.25;;;;;;;;5120183;27;45278;-43
2023/07/23 04:35:40;;;;;;;;;4.25;4.00;;;;;;;;5120609;27;45613;-43
2023/07/23 04:38:05;;;;;;;;;3.50;3.50;;;;;;;;5120859;27;45385;-42
2023/07/23 04:40:34;;;;;;;;;5.00;3.75;;;;;;;;5120659;27;45145;-43
2023/07/23 04:42:59;;;;;;;;;4.50;2.75;;;;;;;;5120212;27;46335;-43
2023/07/23 04:45:24;;;;;;;;;4.25;4.00;;;;;;;;5120419;27;45247;-43
2023/07/23 04:47:49;;;;;;;;;3.00;1.50;;;;;;;;5120686;27;45424;-43
2023/07/23 04:50:15;;;;;;;;;3.00;3.00;;;;;;;;5120846;27;45463;-43
2023/07/23 04:52:40;;;;;;;;;5.25;4.00;;;;;;;;5120488;27;46325;-43
2023/07/23 04:55:07;;;;;;;;;6.25;4.00;;;;;;;;5120633;27;45352;-43
2023/07/23 04:57:32;;;;;;;;;6.75;3.75;;;;;;;;5120229;27;45387;-43
2023/07/23 04:59:57;;;;;;;;;4.25;4.00;;;;;;;;5120391;27;45386;-42
2023/07/23 05:02:23;;;;;;;;;4.00;4.00;;;;;;;;5119995;27;45859;-42
2023/07/23 05:04:48;;;;;;;;;5.50;3.00;;;;;;;;5120298;27;45312;-43
2023/07/23 05:07:13;;;;;;;;;4.00;4.00;;;;;;;;5120019;27;45350;-42
2023/07/23 05:09:41;;;;;;;;;3.00;3.00;;;;;;;;5120350;27;45298;-41
2023/07/23 05:12:06;;;;;;;;;5.25;3.75;;;;;;;;5119740;27;46350;-42
2023/07/23 05:14:31;;;;;;;;;4.50;4.50;;;;;;;;5119924;27;45241;-44
2023/07/23 05:16:56;;;;;;;;;5.25;3.00;;;;;;;;5119874;27;45234;-42
2023/07/23 05:19:21;;;;;;;;;2.75;2.75;;;;;;;;5120182;27;45251;-43
2023/07/23 05:21:47;;;;;;;;;4.00;4.00;;;;;;;;5119562;27;46731;-43
2023/07/23 05:24:12;;;;;;;;;3.25;3.25;;;;;;;;5119719;27;45368;-42
2023/07/23 05:26:37;;;;;;;;;4.75;3.50;;;;;;;;5119710;27;45485;-42
2023/07/23 05:29:02;;;;;;;;;4.75;4.00;;;;;;;;5119791;27;45159;-43
2023/07/23 05:31:27;;;;;;;;;4.00;2.50;;;;;;;;5118881;27;45259;-43
2023/07/23 05:33:53;;;;;;;;;5.00;3.00;;;;;;;;5119214;27;45270;-42
2023/07/23 05:36:18;;;;;;;;;2.50;2.50;;;;;;;;5119499;27;45223;-42
2023/07/23 05:38:43;;;;;;;;;3.00;3.00;;;;;;;;5119954;27;45413;-42
2023/07/23 05:41:08;;;;;;;;;2.50;2.50;;;;;;;;5119362;27;47127;-42
2023/07/23 05:43:33;;;;;;;;;7.25;4.25;;;;;;;;5119364;27;45309;-42
2023/07/23 05:45:59;;;;;;;;;3.00;2.75;;;;;;;;5119501;27;45422;-43
2023/07/23 05:48:24;;;;;;;;;2.25;2.25;;;;;;;;5119547;27;45462;-43
2023/07/23 05:50:52;;;;;;;;;3.50;3.50;;;;;;;;5119210;27;47252;-41
2023/07/23 05:53:17;;;;;;;;;4.00;4.00;;;;;;;;5119098;27;45362;-41
2023/07/23 05:55:42;;;;;;;;;4.50;4.50;;;;;;;;5119454;27;45399;-41
2023/07/23 05:58:07;;;;;;;;;3.75;3.25;;;;;;;;5119491;27;45435;-41
2023/07/23 06:00:33;;;;;;;;;3.00;3.00;;;;;;;;5099928;27;47651;-43
2023/07/23 06:02:58;;;;;;;;;2.00;2.00;;;;;;;;5118914;27;45468;-43
2023/07/23 06:05:23;;;;;;;;;5.25;2.50;;;;;;;;5119073;27;45295;-43
2023/07/23 06:07:48;;;;;;;;;3.75;3.00;;;;;;;;5119245;27;45278;-43
2023/07/23 06:10:14;;;;;;;;;6.25;3.75;;;;;;;;5118895;27;45384;-42
2023/07/23 06:12:39;;;;;;;;;6.25;3.50;;;;;;;;5118854;27;45503;-41
2023/07/23 06:15:04;;;;;;;;;6.00;2.25;;;;;;;;5119204;27;45355;-41
2023/07/23 06:17:29;;;;;;;;;4.00;2.75;;;;;;;;5118877;27;45145;-42
2023/07/23 06:19:55;;;;;;;;;5.00;4.00;;;;;;;;5118799;27;45250;-43
2023/07/23 06:22:20;;;;;;;;;3.50;3.50;;;;;;;;5118722;27;45235;-43
2023/07/23 06:24:45;;;;;;;;;3.25;3.25;;;;;;;;5118969;27;45239;-41
2023/07/23 06:27:10;;;;;;;;;4.00;3.25;;;;;;;;5119009;27;45319;-42
2023/07/23 06:29:36;;;;;;;;;4.00;4.00;;;;;;;;5099951;27;46979;-42
2023/07/23 06:32:01;;;;;;;;;5.50;4.25;;;;;;;;5118482;27;45384;-41
2023/07/23 06:34:26;;;;;;;;;3.00;3.00;;;;;;;;5117640;27;45431;-41
2023/07/23 06:36:51;;;;;;;;;7.00;4.00;;;;;;;;5118984;27;45370;-41
2023/07/23 06:39:16;;;;;;;;;5.00;3.75;;;;;;;;5118436;27;45887;-42
2023/07/23 06:41:42;;;;;;;;;5.25;4.50;;;;;;;;5118728;27;45266;-42
2023/07/23 06:44:07;;;;;;;;;5.00;3.25;;;;;;;;5118581;27;45287;-43
2023/07/23 06:46:32;;;;;;;;;4.75;4.75;;;;;;;;5118793;27;45384;-41
2023/07/23 06:48:57;;;;;;;;;3.25;2.50;;;;;;;;5118195;27;45893;-41
2023/07/23 06:51:23;;;;;;;;;3.50;3.50;;;;;;;;5118397;27;45297;-41
2023/07/23 06:53:48;;;;;;;;;3.00;3.00;;;;;;;;5118555;27;45488;-42
2023/07/23 06:56:13;;;;;;;;;3.00;3.00;;;;;;;;5118591;27;45223;-47
2023/07/23 06:58:38;;;;;;;;;4.75;4.50;;;;;;;;5118173;27;45364;-43
2023/07/23 07:01:04;;;;;;;;;4.25;4.25;;;;;;;;5118104;27;45309;-43
2023/07/23 07:03:30;;;;;;;;;4.00;4.00;;;;;;;;5118083;27;45363;-43
2023/07/23 07:05:55;;;;;;;;;3.75;3.00;;;;;;;;5118367;27;45309;-42
2023/07/23 07:08:20;;;;;;;;;3.00;3.00;;;;;;;;5118181;27;46077;-43
2023/07/23 07:10:46;;;;;;;;;3.25;3.00;;;;;;;;5117958;27;45466;-42
2023/07/23 07:13:11;;;;;;;;;3.00;3.00;;;;;;;;5118145;27;45308;-44
2023/07/23 07:15:37;;;;;;;;;5.00;3.00;;;;;;;;5118438;27;45420;-43
2023/07/23 07:18:03;;;;;;;;;5.00;3.00;;;;;;;;5117628;27;45479;-42
2023/07/23 07:20:28;;;;;;;;;6.25;5.00;;;;;;;;5117954;27;45346;-44
2023/07/23 07:22:53;;;;;;;;;4.75;4.75;;;;;;;;5118066;27;45406;-43
2023/07/23 07:25:18;;;;;;;;;4.25;3.00;;;;;;;;5118259;27;45353;-41
2023/07/23 07:27:43;;;;;;;;;5.00;2.50;;;;;;;;5117765;27;46940;-43
2023/07/23 07:30:09;;;;;;;;;8.00;5.00;;;;;;;;5117796;27;45311;-42
2023/07/23 07:32:34;;;;;;;;;6.25;5.25;;;;;;;;5117718;27;45338;-42
2023/07/23 07:34:59;;;;;;;;;5.00;4.00;;;;;;;;5117892;27;45408;-43
2023/07/23 07:37:25;;;;;;;;;3.50;3.25;;;;;;;;5117759;27;47241;-44
2023/07/23 07:39:50;;;;;;;;;5.20;3.00;;;;;;;;5117744;27;45389;-44
2023/07/23 07:42:16;;;;;;;;;3.25;3.25;;;;;;;;5117762;27;45227;-43
2023/07/23 07:44:41;;;;;;;;;4.00;4.00;;;;;;;;5117990;27;45227;-44
2023/07/23 07:47:06;;;;;;;;;4.25;3.00;;;;;;;;5120750;27;45410;-42
2023/07/23 07:49:31;;;;;;;;;4.50;4.00;;;;;;;;5121194;27;45301;-42
2023/07/23 07:51:57;;;;;;;;;4.00;4.00;;;;;;;;5121224;27;45432;-42
2023/07/23 07:54:22;;;;;;;;;7.25;4.00;;;;;;;;5121386;27;45543;-45
2023/07/23 07:56:47;;;;;;;;;7.75;4.50;;;;;;;;5121169;27;45328;-41
2023/07/23 07:59:13;;;;;;;;;3.25;3.25;;;;;;;;5120884;27;45299;-43
2023/07/23 08:01:38;;;;;;;;;3.25;3.25;;;;;;;;5121052;27;45833;-43
2023/07/23 08:04:07;;;;;;;;;6.75;4.75;;;;;;;;5121244;27;45357;-43
2023/07/23 08:06:33;;;;;;;;;2.60;2.60;;;;;;;;5120716;27;46264;-43
2023/07/23 08:08:59;;;;;;;;;4.25;3.00;;;;;;;;5120948;27;45456;-42
2023/07/23 08:11:24;;;;;;;;;6.25;4.25;;;;;;;;5120834;27;45434;-41
2023/07/23 08:13:50;;;;;;;;;5.00;4.75;;;;;;;;5121275;27;45235;-42
2023/07/23 08:16:16;;;;;;;;;3.80;3.00;;;;;;;;5119931;27;45346;-43
2023/07/23 08:18:42;;;;;;;;;5.40;3.20;;;;;;;;5120792;27;45605;-41
2023/07/23 08:21:08;;;;;;;;;3.75;3.25;;;;;;;;5121038;27;45346;-42
2023/07/23 08:23:36;;;;;;;;;3.20;3.20;;;;;;;;5120977;27;45157;-42
2023/07/23 08:26:02;;;;;;;;;7.00;4.60;;;;;;;;5120513;27;46411;-43
2023/07/23 08:28:31;;;;;;;;;4.00;4.00;;;;;;;;5120621;27;45419;-44
2023/07/23 08:30:57;;;;;;;;;6.00;2.80;;;;;;;;5120578;27;45504;-44
2023/07/23 08:33:24;;;;;;;;;4.00;3.25;;;;;;;;5119846;27;45559;-43
2023/07/23 08:35:50;;;;;;;;;3.80;3.20;;;;;;;;5120440;27;46480;-41
2023/07/23 08:38:15;;;;;;;;;3.75;3.75;;;;;;;;5120626;27;45297;-45
2023/07/23 08:40:42;;;;;;;;;6.50;5.25;;;;;;;;5120868;27;45323;-42
2023/07/23 08:43:27;;;;;;;;;3.00;2.60;;;;;;;;5120557;27;45298;-42
2023/07/23 08:46:11;;;;;;;;;5.00;3.40;;;;;;;;5016460;28;46138;-41
2023/07/23 08:48:56;;;;;;;;;3.40;3.40;;;;;;;;5016390;28;45487;-40
2023/07/23 08:51:23;;;;;;;;;4.00;4.00;;;;;;;;5015972;28;45429;-44
2023/07/23 08:53:50;;;;;;;;;4.40;4.00;;;;;;;;5017049;28;45402;-42
2023/07/23 08:56:16;;;;;;;;;5.40;4.00;;;;;;;;5016293;28;45404;-42
2023/07/23 08:58:42;;;;;;;;;4.75;3.75;;;;;;;;5015616;28;45337;-43
2023/07/23 09:01:08;;;;;;;;;5.00;4.40;;;;;;;;5016508;28;45349;-42
2023/07/23 09:03:33;;;;;;;;;2.50;2.50;;;;;;;;5016532;28;45477;-43
2023/07/23 09:06:00;;;;;;;;;2.00;2.00;;;;;;;;5016062;28;45352;-43
2023/07/23 09:08:25;;;;;;;;;3.20;3.20;;;;;;;;5015839;28;45379;-42
2023/07/23 09:10:50;;;;;;;;;5.00;2.75;;;;;;;;5016137;28;45361;-41
2023/07/23 09:13:15;;;;;;;;;4.25;2.75;;;;;;;;5016480;28;45344;-43
2023/07/23 09:15:41;;;;;;;;;2.75;2.00;;;;;;;;5015934;28;46085;-43
2023/07/23 09:18:07;;;;;;;;;5.50;4.00;;;;;;;;5016242;28;45345;-42
2023/07/23 09:20:32;;;;;;;;;5.80;5.20;;;;;;;;5015999;28;45393;-42
2023/07/23 09:23:05;;;;;;;;;4.50;3.50;;;;;;;;5067281;27;45454;-42
2023/07/23 09:25:31;;;;;;;;;5.80;2.80;;;;;;;;5119472;27;46411;-42
2023/07/23 09:27:56;;;;;;;;;3.75;3.75;;;;;;;;5119552;27;45295;-44
2023/07/23 09:30:22;;;;;;;;;2.25;2.00;;;;;;;;5119873;27;45306;-44
2023/07/23 09:33:01;;;;;;;;;2.00;2.00;;;;;;;;5119609;27;45434;-42
2023/07/23 09:35:30;;;;;;;;;4.00;2.00;;;;;;;;5119134;27;46241;-42
2023/07/23 09:37:59;;;;;;;;;4.00;4.00;;;;;;;;5119392;27;45436;-43
2023/07/23 09:40:34;;;;;;;;;4.60;2.80;;;;;;;;5119410;27;45426;-42
2023/07/23 09:43:00;;;;;;;;;7.00;3.00;;;;;;;;5119712;27;45351;-45
2023/07/23 09:45:25;;;;;;;;;3.25;2.50;;;;;;;;5119123;27;46195;-44
2023/07/23 09:47:50;;;;;;;;;2.75;2.00;;;;;;;;5119292;27;45413;-43
2023/07/23 09:50:16;;;;;;;;;4.00;4.00;;;;;;;;5119198;27;45270;-43
2023/07/23 09:52:41;;;;;;;;;4.00;4.00;;;;;;;;5118867;27;45343;-42
2023/07/23 09:55:07;;;;;;;;;5.00;3.00;;;;;;;;5118462;27;46436;-42
2023/07/23 09:57:34;;;;;;;;;3.40;3.40;;;;;;;;5118913;27;45340;-41
2023/07/23 10:00:00;;;;;;;;;2.60;2.60;;;;;;;;5119390;27;45456;-45
2023/07/23 10:02:27;;;;;;;;;3.40;3.20;;;;;;;;5119288;27;45349;-43
2023/07/23 10:04:53;;;;;;;;;2.80;2.60;;;;;;;;5118879;27;46274;-42
2023/07/23 10:07:20;;;;;;;;;4.00;4.00;;;;;;;;5119027;27;45401;-43
2023/07/23 10:09:47;;;;;;;;;4.20;3.80;;;;;;;;5118979;27;45309;-43
2023/07/23 10:12:13;;;;;;;;;2.80;2.80;;;;;;;;5101157;27;45891;-45
2023/07/23 10:14:38;;;;;;;;;6.50;3.75;;;;;;;;5118842;27;45279;-43
2023/07/23 10:17:05;;;;;;;;;4.00;4.00;;;;;;;;5118901;27;45241;-44
2023/07/23 10:19:30;;;;;;;;;5.40;4.00;;;;;;;;5118908;27;45415;-44
2023/07/23 10:21:56;;;;;;;;;5.00;3.25;;;;;;;;5119126;27;45417;-43
2023/07/23 10:24:21;;;;;;;;;3.00;3.00;;;;;;;;5118769;27;47419;-42
2023/07/23 10:26:47;;;;;;;;;4.00;4.00;;;;;;;;5118721;27;45415;-43
2023/07/23 10:29:14;;;;;;;;;3.60;3.60;;;;;;;;5118871;27;45332;-42
2023/07/23 10:31:40;;;;;;;;;9.50;4.50;;;;;;;;5118756;27;45247;-44
2023/07/23 10:34:27;;;;;;;;;6.40;6.00;;;;;;;;5118393;27;46109;-44
2023/07/23 10:37:11;;;;;;;;;5.20;4.80;;;;;;;;5118505;27;45343;-42
2023/07/23 10:39:40;;;;;;;;;5.40;4.00;;;;;;;;5118785;27;45281;-43
2023/07/23 10:42:05;;;;;;;;;6.00;6.00;;;;;;;;5118870;27;45435;-43
2023/07/23 10:44:31;;;;;;;;;6.25;3.50;;;;;;;;5117647;27;45574;-42
2023/07/23 10:46:57;;;;;;;;;6.00;4.25;;;;;;;;5118489;27;45536;-42
2023/07/23 10:49:24;;;;;;;;;4.80;4.80;;;;;;;;5118502;27;45313;-43
2023/07/23 10:51:50;;;;;;;;;4.75;4.75;;;;;;;;5118360;27;46672;-42
2023/07/23 10:54:16;;;;;;;;;6.00;3.00;;;;;;;;5118273;27;47073;-43
2023/07/23 10:56:43;;;;;;;;;5.60;5.60;;;;;;;;5118137;27;45284;-44
2023/07/23 10:59:09;;;;;;;;;4.00;4.00;;;;;;;;5118340;27;45368;-43
2023/07/23 11:01:35;;;;;;;;;7.00;3.75;;;;;;;;5118756;27;45231;-43
2023/07/23 11:04:06;;;;;;;;;5.20;4.60;;;;;;;;5117947;27;46096;-42
2023/07/23 11:06:32;;;;;;;;;5.00;5.00;;;;;;;;5118094;27;45222;-43
2023/07/23 11:09:01;;;;;;;;;5.75;5.00;;;;;;;;5118435;27;45211;-43
2023/07/23 11:11:39;;;;;;;;;7.00;5.25;;;;;;;;5118480;27;45330;-44
2023/07/23 11:14:24;;;;;;;;;8.50;5.75;;;;;;;;5118004;27;45992;-44
2023/07/23 11:16:51;;;;;;;;;11.60;5.60;;;;;;;;5117529;27;45518;-43
2023/07/23 11:19:17;;;;;;;;;5.40;5.40;;;;;;;;5118598;27;45346;-42
2023/07/23 11:21:50;;;;;;;;;8.75;4.50;;;;;;;;5121141;27;45372;-43
2023/07/23 11:24:15;;;;;;;;;8.25;7.00;;;;;;;;5120942;27;46113;-42
2023/07/23 11:26:41;;;;;;;;;6.50;5.00;;;;;;;;5121731;27;45316;-43
2023/07/23 11:29:06;;;;;;;;;7.75;5.50;;;;;;;;5121890;27;45390;-42
2023/07/23 11:31:33;;;;;;;;;5.00;4.00;;;;;;;;5121991;27;45283;-43
2023/07/23 11:34:00;;;;;;;;;5.80;4.20;;;;;;;;5121189;27;47192;-42
2023/07/23 11:36:26;;;;;;;;;5.40;4.00;;;;;;;;5121523;27;45350;-42
2023/07/23 11:38:57;;;;;;;;;5.25;4.00;;;;;;;;5121737;27;45447;-42
2023/07/23 11:41:40;;;;;;;;;6.00;4.25;;;;;;;;5121624;27;45468;-50
2023/07/23 11:44:06;;;;;;;;;4.40;4.40;;;;;;;;5120967;27;46293;-43
2023/07/23 11:46:36;;;;;;;;;10.25;8.00;;;;;;;;5121137;27;45279;-44
2023/07/23 11:49:02;;;;;;;;;2.00;2.00;;;;;;;;5121365;27;45441;-43
2023/07/23 11:51:28;;;;;;;;;5.50;4.00;;;;;;;;5102757;27;45385;-43
2023/07/23 11:54:00;;;;;;;;;3.75;3.75;;;;;;;;5121256;27;45410;-44
2023/07/23 11:56:25;;;;;;;;;6.60;5.00;;;;;;;;5120883;27;45320;-44
2023/07/23 11:58:50;;;;;;;;;5.75;5.00;;;;;;;;5121286;27;45290;-43
2023/07/23 12:01:15;;;;;;;;;4.25;4.25;;;;;;;;5121247;27;45495;-44
2023/07/23 12:03:42;;;;;;;;;5.50;5.50;;;;;;;;5120955;27;45477;-44
2023/07/23 12:06:07;;;;;;;;;4.40;3.00;;;;;;;;5120832;27;45333;-44
2023/07/23 12:08:35;;;;;;;;;6.75;4.50;;;;;;;;5120899;27;45447;-42
2023/07/23 12:11:07;;;;;;;;;7.20;5.60;;;;;;;;5120791;27;45388;-41
2023/07/23 12:13:33;;;;;;;;;4.40;0.40;;;;;;;;5120755;27;46259;-43
2023/07/23 12:15:58;;;;;;;;;5.00;5.00;;;;;;;;5120844;27;45386;-44
2023/07/23 12:18:27;;;;;;;;;4.75;4.75;;;;;;;;5121028;27;45281;-43
2023/07/23 12:20:59;;;;;;;;;9.00;6.00;;;;;;;;5120613;27;45522;-42
2023/07/23 12:23:24;;;;;;;;;5.80;4.00;;;;;;;;5120635;27;45498;-45
2023/07/23 12:25:50;;;;;;;;;5.00;5.00;;;;;;;;5120635;27;45259;-43
2023/07/23 12:28:15;;;;;;;;;5.00;4.75;;;;;;;;5120784;27;45396;-43
2023/07/23 12:30:40;;;;;;;;;6.00;4.75;;;;;;;;5120882;27;45376;-42
2023/07/23 12:33:05;;;;;;;;;9.00;5.75;;;;;;;;5119169;27;46007;-41
2023/07/23 12:35:30;;;;;;;;;4.00;4.00;;;;;;;;5120376;27;45444;-43
2023/07/23 12:37:56;;;;;;;;;6.00;6.00;;;;;;;;5120718;27;45313;-43
2023/07/23 12:40:21;;;;;;;;;4.50;4.00;;;;;;;;5120446;27;45313;-44
2023/07/23 12:42:46;;;;;;;;;4.75;4.25;;;;;;;;5120396;27;45428;-43
2023/07/23 12:45:11;;;;;;;;;9.25;6.50;;;;;;;;5120430;27;45194;-42
2023/07/23 12:47:36;;;;;;;;;4.25;4.25;;;;;;;;5120290;27;45222;-44
2023/07/23 12:50:02;;;;;;;;;8.25;6.00;;;;;;;;5102084;27;45472;-44
2023/07/23 12:52:27;;;;;;;;;4.00;3.75;;;;;;;;5119852;27;46350;-45
2023/07/23 12:54:52;;;;;;;;;6.00;5.00;;;;;;;;5120046;27;45270;-42
2023/07/23 12:57:18;;;;;;;;;6.50;6.50;;;;;;;;5120457;27;45358;-44
2023/07/23 12:59:44;;;;;;;;;6.50;6.50;;;;;;;;5120438;27;45445;-43
2023/07/23 13:02:09;;;;;;;;;9.50;4.50;;;;;;;;5119761;27;45405;-44
2023/07/23 13:04:35;;;;;;;;;5.50;4.00;;;;;;;;5119884;27;45384;-42
2023/07/23 13:07:01;;;;;;;;;5.60;4.20;;;;;;;;5120020;27;45324;-43
2023/07/23 13:09:26;;;;;;;;;6.50;6.25;;;;;;;;5120342;27;45257;-42
2023/07/23 13:11:51;;;;;;;;;6.75;5.25;;;;;;;;5119813;27;46172;-42
2023/07/23 13:14:16;;;;;;;;;3.25;3.25;;;;;;;;5119998;27;45464;-43
2023/07/23 13:16:41;;;;;;;;;4.25;4.00;;;;;;;;5119987;27;45324;-43
2023/07/23 13:19:07;;;;;;;;;6.50;3.75;;;;;;;;5120267;27;45369;-44
2023/07/23 13:21:32;;;;;;;;;3.00;3.00;;;;;;;;5119910;27;45321;-43
2023/07/23 13:23:57;;;;;;;;;4.50;4.50;;;;;;;;5120882;27;45310;-44
2023/07/23 13:26:22;;;;;;;;;5.75;5.75;;;;;;;;5120214;27;45272;-46
2023/07/23 13:28:48;;;;;;;;;5.00;4.75;;;;;;;;5120207;27;45294;-41
2023/07/23 13:31:17;;;;;;;;;6.75;4.75;;;;;;;;5119498;27;46600;-41
2023/07/23 13:33:42;;;;;;;;;4.20;4.20;;;;;;;;5119299;27;45287;-42
2023/07/23 13:36:08;;;;;;;;;5.00;5.00;;;;;;;;5119544;27;45400;-42
2023/07/23 13:38:33;;;;;;;;;5.75;4.00;;;;;;;;5119755;27;45406;-42
2023/07/23 13:40:58;;;;;;;;;4.00;3.25;;;;;;;;5119469;27;46346;-42
2023/07/23 13:43:23;;;;;;;;;6.00;6.00;;;;;;;;5119144;27;45229;-42
2023/07/23 13:45:48;;;;;;;;;3.50;3.50;;;;;;;;5119484;27;45388;-41
2023/07/23 13:48:14;;;;;;;;;5.00;3.00;;;;;;;;5119660;27;45283;-42
2023/07/23 13:50:39;;;;;;;;;3.50;2.75;;;;;;;;5119280;27;46049;-42
2023/07/23 13:53:05;;;;;;;;;4.75;3.50;;;;;;;;5119447;27;45383;-42
2023/07/23 13:55:30;;;;;;;;;5.25;3.75;;;;;;;;5119490;27;45500;-41
2023/07/23 13:57:55;;;;;;;;;5.50;5.25;;;;;;;;5119462;27;45204;-41
2023/07/23 14:00:20;;;;;;;;;4.00;4.00;;;;;;;;5119206;27;45786;-41
2023/07/23 14:02:46;;;;;;;;;7.75;4.75;;;;;;;;5119433;27;45321;-42
2023/07/23 14:05:12;;;;;;;;;5.00;4.25;;;;;;;;5119120;27;45308;-43
2023/07/23 14:07:37;;;;;;;;;5.00;4.20;;;;;;;;5118692;27;45343;-43
2023/07/23 14:10:03;;;;;;;;;6.50;4.75;;;;;;;;5118877;27;45856;-42
2023/07/23 14:12:28;;;;;;;;;3.50;3.50;;;;;;;;5118801;27;45310;-43
2023/07/23 14:14:53;;;;;;;;;4.25;4.25;;;;;;;;5119392;27;45408;-43
2023/07/23 14:17:19;;;;;;;;;6.25;3.75;;;;;;;;5119336;27;45284;-42
2023/07/23 14:19:47;;;;;;;;;4.75;4.50;;;;;;;;5118896;27;46137;-44
2023/07/23 14:22:12;;;;;;;;;5.00;4.60;;;;;;;;5118720;27;45468;-43
2023/07/23 14:24:37;;;;;;;;;5.50;4.25;;;;;;;;5119051;27;45334;-42
2023/07/23 14:27:03;;;;;;;;;5.25;4.25;;;;;;;;5119224;27;45408;-43
2023/07/23 14:29:28;;;;;;;;;6.50;5.00;;;;;;;;5118758;27;46313;-43
2023/07/23 14:31:53;;;;;;;;;4.00;4.00;;;;;;;;5118566;27;45169;-45
2023/07/23 14:34:19;;;;;;;;;3.75;3.75;;;;;;;;5118768;27;45228;-43
2023/07/23 14:36:44;;;;;;;;;3.50;3.00;;;;;;;;5118968;27;45214;-44